Atmospheric History
02/08/2018 18:26  to  2/9/2018 18:26
Change End Date:
To complete the export process:
1) Select all of the data below
2) Copy the data to the clipboard
3) Open a word processor such as Notepad
4) Paste the data into the word processor
5) Save the file

Date/Time (MST), AirTemp, RH, Dewpoint ,AvgWindSpeed, GustWindSpeed, WindDirection, PrecipType, PrecipIntensity, PrecipAccumulation, PrecipRate
02/09/2018 18:20, -15, 78, -19 ,12, 12, W, None, None, ,  
02/09/2018 18:17, -14, 78, -19 ,11, 12, W, None, None, ,  
02/09/2018 18:07, -14, 78, -19 ,12, 13, W, None, None, ,  
02/09/2018 18:05, -15, 78, -19 ,11, 13, W, None, None, ,  
02/09/2018 17:57, -15, 78, -20 ,12, 14, W, None, None, ,  
02/09/2018 17:50, -15, 78, -20 ,14, 15, W, None, None, ,  
02/09/2018 17:47, -15, 78, -20 ,14, 15, W, None, None, ,  
02/09/2018 17:37, -15, 78, -19 ,12, 12, W, None, None, ,  
02/09/2018 17:35, -14, 78, -19 ,12, 12, W, None, None, ,  
02/09/2018 17:27, -13, 79, -18 ,9, 11, W, None, None, ,  
02/09/2018 17:20, -11, 79, -16 ,7, 9, W, None, None, ,  
02/09/2018 17:17, -11, 79, -15 ,7, 9, W, None, None, ,  
02/09/2018 17:07, -9, 80, -13 ,4, 6, W, None, None, ,  
02/09/2018 17:05, -8, 80, -13 ,5, 8, W, None, None, ,  
02/09/2018 16:57, -7, 80, -12 ,6, 8, W, None, None, ,  
02/09/2018 16:50, -6, 80, -11 ,4, 6, W, None, None, ,  
02/09/2018 16:47, -6, 80, -10 ,4, 7, W, None, None, ,  
02/09/2018 16:37, -5, 80, -10 ,7, 9, NW, None, None, ,  
02/09/2018 16:35, -5, 80, -10 ,8, 9, NW, None, None, ,  
02/09/2018 16:27, -5, 80, -10 ,7, 9, NW, None, None, ,  
02/09/2018 16:20, -4, 81, -9 ,6, 7, NW, None, None, ,  
02/09/2018 16:17, -4, 81, -8 ,5, 7, NW, None, None, ,  
02/09/2018 16:07, -4, 81, -8 ,6, 7, NW, None, None, ,  
02/09/2018 16:05, -4, 81, -8 ,6, 7, NW, None, None, ,  
02/09/2018 15:57, -3, 81, -8 ,6, 8, NW, None, None, ,  
02/09/2018 15:50, -3, 81, -7 ,7, 9, W, None, None, ,  
02/09/2018 15:47, -3, 81, -7 ,7, 10, W, None, None, ,  
02/09/2018 15:37, -3, 81, -7 ,9, 11, W, None, None, ,  
02/09/2018 15:35, -3, 81, -7 ,9, 11, W, None, None, ,  
02/09/2018 15:27, -2, 81, -6 ,9, 11, W, None, None, ,  
02/09/2018 15:20, -1, 81, -5 ,9, 11, W, None, None, ,  
02/09/2018 15:17, -1, 81, -5 ,10, 11, W, None, None, ,  
02/09/2018 15:07, 1, 81, -3 ,7, 9, W, None, None, ,  
02/09/2018 15:05, 2, 82, -2 ,6, 7, W, None, None, ,  
02/09/2018 14:57, 3, 82, -1 ,4, 6, W, None, None, ,  
02/09/2018 14:50, 3, 81, -1 ,2, 4, W, None, None, ,  
02/09/2018 14:47, 3, 81, -1 ,2, 5, NW, None, None, ,  
02/09/2018 14:37, 2, 81, -2 ,4, 7, NW, None, None, ,  
02/09/2018 14:35, 2, 81, -2 ,5, 9, NW, None, None, ,  
02/09/2018 14:27, 2, 81, -3 ,7, 9, W, None, None, ,  
02/09/2018 14:20, 1, 81, -3 ,7, 9, W, None, None, ,  
02/09/2018 14:17, 1, 81, -3 ,8, 9, W, None, None, ,  
02/09/2018 14:07, 1, 81, -4 ,7, 10, W, None, None, ,  
02/09/2018 14:05, 1, 81, -4 ,8, 10, W, None, None, ,  
02/09/2018 13:57, -1, 81, -5 ,9, 12, W, None, None, ,  
02/09/2018 13:50, -1, 81, -6 ,10, 12, W, None, None, ,  
02/09/2018 13:47, -1, 81, -6 ,11, 12, W, None, None, ,  
02/09/2018 13:37, -1, 81, -5 ,9, 12, W, None, None, ,  
02/09/2018 13:35, -1, 81, -5 ,9, 12, W, None, None, ,  
02/09/2018 13:27, 0, 81, -4 ,11, 12, W, None, None, ,  
02/09/2018 13:20, 1, 81, -4 ,10, 12, W, None, None, ,  
02/09/2018 13:17, 1, 81, -4 ,10, 12, W, None, None, ,  
02/09/2018 13:07, 0, 80, -5 ,9, 11, W, None, None, ,  
02/09/2018 13:05, 0, 80, -5 ,9, 11, W, None, None, ,  
02/09/2018 12:57, -1, 80, -5 ,9, 10, W, None, None, ,  
02/09/2018 12:50, -1, 80, -6 ,8, 10, W, None, None, ,  
02/09/2018 12:47, -2, 80, -6 ,8, 10, W, None, None, ,  
02/09/2018 12:36, -2, 80, -7 ,9, 11, W, None, None, ,  
02/09/2018 12:35, -2, 80, -7 ,9, 11, W, None, None, ,  
02/09/2018 12:26, -2, 80, -7 ,9, 11, W, None, None, ,  
02/09/2018 12:20, -2, 80, -7 ,9, 11, W, None, None, ,  
02/09/2018 12:16, -2, 80, -7 ,9, 10, W, None, None, ,  
02/09/2018 12:06, -3, 80, -7 ,9, 9, W, None, None, ,  
02/09/2018 12:05, -3, 80, -7 ,9, 9, W, None, None, ,  
02/09/2018 11:56, -2, 80, -7 ,8, 10, W, None, None, ,  
02/09/2018 11:50, -2, 80, -6 ,9, 11, W, None, None, ,  
02/09/2018 11:46, -2, 80, -7 ,9, 12, W, None, None, ,  
02/09/2018 11:36, -2, 80, -7 ,11, 12, W, None, None, ,  
02/09/2018 11:35, -2, 80, -7 ,10, 12, W, None, None, ,  
02/09/2018 11:26, -3, 80, -7 ,11, 12, W, None, None, ,  
02/09/2018 11:20, -3, 80, -7 ,11, 12, W, None, None, ,  
02/09/2018 11:16, -3, 80, -7 ,11, 12, W, None, None, ,  
02/09/2018 11:06, -3, 80, -8 ,12, 12, W, None, None, ,  
02/09/2018 11:05, -3, 80, -8 ,12, 12, W, None, None, ,  
02/09/2018 10:56, -4, 80, -9 ,12, 13, W, None, None, ,  
02/09/2018 10:50, -4, 80, -9 ,12, 13, W, None, None, ,  
02/09/2018 10:46, -4, 80, -9 ,12, 13, W, None, None, ,  
02/09/2018 10:36, -5, 80, -9 ,10, 12, W, None, None, ,  
02/09/2018 10:35, -5, 80, -9 ,10, 12, W, None, None, ,  
02/09/2018 10:26, -5, 80, -9 ,9, 12, W, None, None, ,  
02/09/2018 10:20, -5, 80, -9 ,10, 12, W, None, None, ,  
02/09/2018 10:16, -5, 80, -9 ,11, 13, W, None, None, ,  
02/09/2018 10:06, -6, 79, -10 ,12, 14, W, None, None, ,  
02/09/2018 10:05, -6, 79, -10 ,11, 14, W, None, None, ,  
02/09/2018 09:56, -6, 79, -10 ,12, 14, W, None, None, ,  
02/09/2018 09:50, -6, 79, -10 ,12, 13, W, None, None, ,  
02/09/2018 09:46, -6, 79, -11 ,12, 14, W, None, None, ,  
02/09/2018 09:36, -7, 79, -12 ,12, 13, W, None, None, ,  
02/09/2018 09:35, -7, 79, -12 ,12, 13, W, None, None, ,  
02/09/2018 09:26, -9, 78, -14 ,12, 12, W, None, None, ,  
02/09/2018 09:20, -10, 78, -14 ,9, 10, W, None, None, ,  
02/09/2018 09:16, -11, 78, -15 ,7, 8, W, None, None, ,  
02/09/2018 09:06, -12, 78, -16 ,4, 4, W, None, None, ,  
02/09/2018 09:05, -11, 78, -16 ,4, 5, W, None, None, ,  
02/09/2018 08:56, -11, 78, -16 ,4, 5, W, None, None, ,  
02/09/2018 08:50, -11, 78, -16 ,3, 4, W, None, None, ,  
02/09/2018 08:46, -11, 78, -16 ,4, 4, W, None, None, ,  
02/09/2018 08:36, -11, 78, -16 ,2, 3, W, None, None, ,  
02/09/2018 08:35, -11, 78, -16 ,2, 3, W, None, None, ,  
02/09/2018 08:26, -12, 78, -17 ,2, 3, W, None, None, ,  
02/09/2018 08:20, -13, 78, -18 ,2, 2, W, None, None, ,  
02/09/2018 08:16, -14, 78, -18 ,1, 2, NW, None, None, ,  
02/09/2018 08:06, -14, 78, -18 ,1, 2, NW, None, None, ,  
02/09/2018 08:05, -14, 78, -18 ,1, 2, NW, None, None, ,  
02/09/2018 07:56, -13, 78, -18 ,2, 3, N, None, None, ,  
02/09/2018 07:50, -13, 78, -18 ,2, 3, N, None, None, ,  
02/09/2018 07:46, -13, 78, -18 ,1, 4, N, None, None, ,  
02/09/2018 07:36, -13, 78, -18 ,4, 5, N, None, None, ,  
02/09/2018 07:35, -13, 78, -18 ,4, 5, N, None, None, ,  
02/09/2018 07:26, -12, 79, -17 ,4, 4, NE, None, None, ,  
02/09/2018 07:20, -11, 79, -16 ,4, 4, NE, None, None, ,  
02/09/2018 07:16, -11, 79, -15 ,3, 4, N, None, None, ,  
02/09/2018 07:06, -10, 79, -15 ,3, 5, N, None, None, ,  
02/09/2018 07:05, -10, 79, -15 ,4, 5, N, None, None, ,  
02/09/2018 06:56, -11, 79, -16 ,4, 4, N, None, None, ,  
02/09/2018 06:50, -11, 79, -16 ,4, 4, NW, None, None, ,  
02/09/2018 06:46, -11, 79, -15 ,4, 6, N, None, None, ,  
02/09/2018 06:36, -11, 79, -16 ,5, 6, N, None, None, ,  
02/09/2018 06:35, -11, 79, -16 ,5, 6, N, None, None, ,  
02/09/2018 06:26, -10, 79, -15 ,3, 5, NW, None, None, ,  
02/09/2018 06:20, -10, 79, -14 ,4, 7, NW, None, None, ,  
02/09/2018 06:16, -10, 79, -14 ,6, 7, NE, None, None, ,  
02/09/2018 06:06, -9, 80, -14 ,6, 7, NE, None, None, ,  
02/09/2018 06:05, -9, 80, -14 ,6, 7, NE, None, None, ,  
02/09/2018 05:56, -8, 80, -13 ,7, 7, NE, None, None, ,  
02/09/2018 05:50, -7, 80, -12 ,7, 8, NE, None, None, ,  
02/09/2018 05:45, -7, 80, -12 ,7, 8, NE, None, None, ,  
02/09/2018 05:35, -7, 80, -11 ,7, 9, NE, None, None, ,  
02/09/2018 05:35, -7, 80, -11 ,7, 9, NE, None, None, ,  
02/09/2018 05:25, -7, 80, -11 ,7, 9, NE, None, None, ,  
02/09/2018 05:20, -7, 80, -11 ,7, 7, NE, None, None, ,  
02/09/2018 05:15, -7, 80, -11 ,7, 7, NE, None, None, ,  
02/09/2018 05:05, -6, 80, -11 ,7, 9, NE, None, None, ,  
02/09/2018 05:05, -6, 80, -11 ,7, 9, NE, None, None, ,  
02/09/2018 04:55, -6, 80, -10 ,8, 9, NE, None, None, ,  
02/09/2018 04:50, -6, 80, -10 ,9, 10, NE, None, None, ,  
02/09/2018 04:45, -6, 80, -10 ,9, 10, NE, None, None, ,  
02/09/2018 04:35, -5, 80, -10 ,8, 10, NE, None, None, ,  
02/09/2018 04:35, -5, 80, -10 ,8, 10, NE, None, None, ,  
02/09/2018 04:25, -5, 80, -9 ,9, 11, NE, None, None, ,  
02/09/2018 04:20, -5, 80, -9 ,9, 12, NE, None, None, ,  
02/09/2018 04:15, -5, 80, -9 ,10, 12, N, None, None, ,  
02/09/2018 04:05, -4, 80, -9 ,11, 12, N, None, None, ,  
02/09/2018 04:05, -4, 80, -9 ,11, 12, N, None, None, ,  
02/09/2018 03:55, -4, 80, -9 ,11, 14, N, None, None, ,  
02/09/2018 03:50, -4, 80, -9 ,12, 14, N, None, None, ,  
02/09/2018 03:45, -4, 80, -8 ,12, 13, N, None, None, ,  
02/09/2018 03:35, -4, 80, -8 ,9, 10, N, Yes, , ,  
02/09/2018 03:35, -4, 80, -8 ,9, 10, N, Yes, , ,  
02/09/2018 03:25, -4, 80, -8 ,9, 10, N, Yes, , ,  
02/09/2018 03:20, -4, 80, -8 ,9, 11, N, None, None, ,  
02/09/2018 03:15, -4, 80, -8 ,9, 11, N, None, None, ,  
02/09/2018 03:05, -4, 80, -8 ,9, 12, N, None, None, ,  
02/09/2018 03:05, -4, 80, -8 ,9, 12, N, None, None, ,  
02/09/2018 02:55, -3, 80, -8 ,11, 13, N, None, None, ,  
02/09/2018 02:50, -3, 80, -8 ,12, 13, N, None, None, ,  
02/09/2018 02:45, -3, 80, -8 ,12, 13, N, None, None, ,  
02/09/2018 02:35, -3, 80, -8 ,12, 14, N, None, None, ,  
02/09/2018 02:35, -3, 80, -8 ,12, 14, N, None, None, ,  
02/09/2018 02:25, -3, 80, -7 ,12, 14, N, None, None, ,  
02/09/2018 02:20, -3, 80, -8 ,12, 14, N, None, None, ,  
02/09/2018 02:15, -3, 80, -8 ,12, 14, N, None, None, ,  
02/09/2018 02:05, -3, 80, -7 ,11, 12, N, None, None, ,  
02/09/2018 02:05, -3, 80, -7 ,11, 12, N, None, None, ,  
02/09/2018 01:55, -3, 80, -8 ,10, 12, N, None, None, ,  
02/09/2018 01:50, -3, 80, -8 ,10, 12, N, None, None, ,  
02/09/2018 01:45, -3, 80, -8 ,10, 12, N, None, None, ,  
02/09/2018 01:35, -3, 80, -8 ,11, 12, N, None, None, ,  
02/09/2018 01:35, -3, 80, -8 ,11, 12, N, None, None, ,  
02/09/2018 01:25, -3, 80, -8 ,11, 12, N, Yes, , ,  
02/09/2018 01:20, -3, 80, -8 ,10, 12, N, Yes, , ,  
02/09/2018 01:15, -3, 80, -8 ,11, 12, N, Yes, , ,  
02/09/2018 01:05, -3, 80, -8 ,12, 13, N, None, None, ,  
02/09/2018 01:05, -3, 80, -8 ,12, 13, N, None, None, ,  
02/09/2018 00:55, -3, 80, -8 ,10, 12, N, None, None, ,  
02/09/2018 00:50, -3, 80, -8 ,11, 13, N, Yes, , ,  
02/09/2018 00:45, -3, 80, -8 ,11, 13, N, None, None, ,  
02/09/2018 00:35, -3, 80, -8 ,12, 14, N, Yes, , ,  
02/09/2018 00:35, -3, 80, -8 ,12, 14, N, Yes, , ,  
02/09/2018 00:25, -3, 80, -8 ,13, 15, N, None, None, ,  
02/09/2018 00:20, -3, 80, -8 ,14, 16, N, None, None, ,  
02/09/2018 00:15, -3, 80, -8 ,14, 16, N, None, None, ,  
02/09/2018 00:05, -3, 80, -8 ,15, 17, N, None, None, ,  
02/09/2018 00:05, -3, 80, -8 ,15, 17, N, None, None, ,  
02/08/2018 23:55, -3, 80, -8 ,15, 17, N, None, None, ,  
02/08/2018 23:50, -3, 80, -8 ,15, 17, N, None, None, ,  
02/08/2018 23:45, -3, 80, -8 ,14, 16, N, None, None, ,  
02/08/2018 23:35, -3, 80, -8 ,14, 17, N, None, None, ,  
02/08/2018 23:35, -3, 80, -8 ,14, 17, N, None, None, ,  
02/08/2018 23:25, -3, 80, -8 ,14, 17, N, None, None, ,  
02/08/2018 23:20, -3, 80, -8 ,15, 17, N, None, None, ,  
02/08/2018 23:14, -3, 80, -8 ,15, 17, N, None, None, ,  
02/08/2018 23:05, -3, 80, -8 ,14, 16, N, None, None, ,  
02/08/2018 23:04, -3, 80, -8 ,14, 16, N, None, None, ,  
02/08/2018 22:54, -3, 80, -8 ,14, 17, N, None, None, ,  
02/08/2018 22:50, -3, 80, -8 ,16, 18, NE, None, None, ,  
02/08/2018 22:44, -3, 80, -8 ,16, 18, NE, None, None, ,  
02/08/2018 22:35, -3, 80, -8 ,16, 19, N, None, None, ,  
02/08/2018 22:34, -3, 80, -8 ,17, 19, N, None, None, ,  
02/08/2018 22:24, -4, 80, -8 ,16, 17, N, None, None, ,  
02/08/2018 22:20, -4, 80, -8 ,14, 16, N, None, None, ,  
02/08/2018 22:14, -4, 80, -9 ,13, 16, N, None, None, ,  
02/08/2018 22:05, -5, 80, -9 ,13, 14, N, None, None, ,  
02/08/2018 22:04, -5, 80, -9 ,13, 14, N, None, None, ,  
02/08/2018 21:54, -5, 80, -9 ,12, 14, N, None, None, ,  
02/08/2018 21:50, -5, 80, -9 ,12, 14, N, None, None, ,  
02/08/2018 21:44, -5, 80, -10 ,12, 16, N, None, None, ,  
02/08/2018 21:35, -6, 80, -10 ,14, 16, N, None, None, ,  
02/08/2018 21:34, -6, 80, -10 ,15, 16, N, None, None, ,  
02/08/2018 21:24, -5, 80, -10 ,15, 16, N, None, None, ,  
02/08/2018 21:20, -5, 80, -9 ,13, 15, N, None, None, ,  
02/08/2018 21:14, -4, 81, -9 ,13, 14, N, None, None, ,  
02/08/2018 21:05, -4, 81, -8 ,12, 14, N, None, None, ,  
02/08/2018 21:04, -4, 81, -8 ,12, 15, N, None, None, ,  
02/08/2018 20:54, -3, 81, -8 ,14, 16, N, None, None, ,  
02/08/2018 20:50, -3, 81, -7 ,14, 16, N, None, None, ,  
02/08/2018 20:44, -3, 81, -7 ,14, 16, N, None, None, ,  
02/08/2018 20:35, -2, 81, -7 ,14, 16, N, None, None, ,  
02/08/2018 20:34, -2, 81, -7 ,13, 16, N, None, None, ,  
02/08/2018 20:24, -2, 81, -6 ,15, 17, N, Yes, , ,  
02/08/2018 20:20, -2, 81, -6 ,15, 19, N, None, None, ,  
02/08/2018 20:14, -2, 81, -6 ,15, 21, N, None, None, ,  
02/08/2018 20:05, -2, 81, -6 ,17, 23, N, None, None, ,  
02/08/2018 20:04, -2, 81, -6 ,18, 23, N, None, None, ,  
02/08/2018 19:54, -2, 81, -6 ,17, 21, N, None, None, ,  
02/08/2018 19:50, -2, 81, -6 ,19, 22, N, None, None, ,  
02/08/2018 19:44, -2, 81, -6 ,16, 23, N, None, None, ,  
02/08/2018 19:35, -2, 81, -6 ,19, 22, N, None, None, ,  
02/08/2018 19:34, -2, 81, -6 ,18, 22, N, None, None, ,  
02/08/2018 19:24, -2, 81, -6 ,21, 25, N, None, None, ,  
02/08/2018 19:20, -2, 81, -6 ,20, 25, N, None, None, ,  
02/08/2018 19:14, -1, 81, -6 ,20, 25, N, None, None, ,  
02/08/2018 19:05, -1, 81, -6 ,22, 26, N, None, None, ,  
02/08/2018 19:04, -1, 81, -6 ,22, 26, N, None, None, ,  
02/08/2018 18:54, -1, 81, -5 ,20, 24, N, None, None, ,  
02/08/2018 18:50, -1, 81, -5 ,18, 24, N, None, None, ,  
02/08/2018 18:44, -1, 81, -6 ,22, 24, N, None, None, ,  
02/08/2018 18:35, -1, 81, -5 ,21, 25, N, None, None, ,  
02/08/2018 18:34, -1, 81, -5 ,21, 25, N, None, None, ,  
Change End Date:

Copyright © 1998-2015 Vaisala, Inc.
All Rights Reserved
Send comments about the data to:
SCAN Web ® is a registered trademark of Vaisala, Inc.
SCAN Web Version 6.0